My Meet Scores
Livia Sulzberger, Gymnastics X-Calibur - MyMeetScores.com
Top100 | Top Teams | Upcoming Meets | Completed Meets | Latest | Add Scores | Help| Support | Bookmark and Share

Livia Sulzberger, Gymnastics X-Calibur
Personal Bests
LevelVault BarsBeamFloorAA
XG9.5009.800 9.7009.80038.550
XP9.6509.800 9.6759.75038.600
XS9.8009.875 9.8759.80038.850
Scores on America's Top 100as of 08.05.2021
Year Level Vault Bars Beam Floor AA
2019 XS9.8009.87538.850
2020 XG9.8009.80038.550
2020 XP9.65037.875
2021 XP9.80038.600

Click here to view our exclusive Top 100 Collection
Meet Scores
Date Meet Team Session Level Division Vault Bars Beam Floor AA
2021-03-26 Illinois State Meet Level 9,10, Platinum, Dia Gymnastics X-Calibur 01 XP Jr A 9.050 9 9.800 1 9.600 1 9.675 1 38.125 1
2021-02-26 Kinetic Classic 2021 Gymnastics X-Calibur 14 XP Younger 9.575 1 9.600 1 9.675 1 9.750 2 38.600 1
2021-02-11 SCGA Classic 2021 Gymnastics X-Calibur XP XP Jr A 9.225 1 9.350 3 9.650 1 9.650 1 37.875 1
2021-02-11 SCGA Classic 2021 Gymnastics X-Calibur 1 XP Jr A 9.225 1 9.350 3 9.650 1 9.650 1 37.875 1
2021-02-11 SCGA Classic 2021 Gymnastics X-Calibur 0 XP Jr A 0.000 3*
2021-02-05 Honey Badger Invite 2021 Gymnastics X-Calibur 4 XP All 8.900 5 9.475 1 9.100 3 9.425 1T 36.900 1
2021-01-21 King Arthur Invitational Gymnastics X-Calibur 9 XP CH 9.150 2 9.475 3 9.375 2 9.350 7T 37.350 2
2021-01-14 2021 Bravo Classic Gymnastics X-Calibur 10 XP Jr 9.450 1 9.325 2 9.350 2 9.550 1 37.675 1
2020-12-04 Wish Classic Gymnastics X-Calibur 1 XP JR 9.650 1 9.300 2 9.400 1T 9.525 2 37.875 1
2020-02-21 Kinetic Classic Gymnastics X-Calibur 10 XG Younger 9.500 6T 9.800 5T 9.575 2 9.675 1 38.550 1
2020-01-31 LEgacy Elite Classic Gymnastics X-Calibur 5 XG Ch 9.350 1 9.650 1 9.200 2T 9.575 1 37.775 1
2020-01-24 King Arthur Invitational Gymnastics X-Calibur 11 XG JR B 9.475 1 9.650 1T 9.100 6 9.800 1 38.025 1
2020-01-10 Leenda's Island Adventure Gymnastics X-Calibur GG9 XG 10 & Under 9.050 1 9.750 1 9.350 1 9.100 10 37.250 1
2019-12-07 Home for the Holidays 2019 Gymnastics X-Calibur 5 XG Middle 9.075 4 9.675 1 9.400 1 9.750 1 37.900 1
2019-11-08 Illinois Judges Cup Gymnastics X-Calibur P6 XG All Ages 9.250 4T 9.150 10 9.700 1 9.625 1T 37.725 1
2019-05-03 2019 Region 5 Xcel Championships Team Justify IL 04D XS All Ages 9.425 16T 9.625 9T 9.475 38T 9.425 13 37.950 11
2019-04-13 2019 Illinois XB, XS State Championships Gymnastics X-Calibur 4 XS Ch F 9.800 1 9.400 23T 9.750 1T 9.800 1 38.750 1
2019-02-22 Gasparilla Classic Gymnastics X-Calibur C4 XS XS c4 gp3 9.400 1T 9.750 2 9.525 1 9.400 2 38.075 1
2019-02-15 Women's Midwest Open Gymnastics X-Calibur 11 XS Junior B 9.475 2 9.875 1 9.300 7 9.700 1 38.350 1
2019-02-08 Midwest Twisters Harley Meet Womens Gymnastics X-Calibur S10 XS 9 yrs. 9.025 3 9.150 6 9.750 1 9.800 1 37.725 1
2019-01-25 King Arthur Invitational Gymnastics X-Calibur 16 XS JR B 9.500 2T 9.775 1 9.725 1 9.475 2T 38.475 1
2019-01-04 Leenda's Island Adventure Gymnastics X-Calibur P06 XS 9 Year Old 9.350 2 9.875 1 9.875 1 9.750 1 38.850 1
2018-11-30 Ultimate Wish Classic Gymnastics X-Calibur 7 XS JR 9.475 1 9.750 1 9.825 1 9.525 2 38.575 1
Get your scores on
a t-shirt, pin, or hoodie